Hlavní strana
METAR-TAF:

METAR-TAF

Letiště :

Monte Cimone, Itálie

zeměpisná šířka: 44-12N, zeměpisná délka: 010-42E, výška: 2165 m

Aktuální stav počasí

Zpráva byla vytvořena před 22 hodinami a 50 minutami, v 07:55 UTC
Severovýchodní vítr 21 kt
Teplota -10°C
Vlhkost vzduchu 92%
Tlak 1005 hPa
Viditelnost do 50 m
mrznoucí mlha

METAR: LIVC 140755Z 04021KT 0000 FZFG VV/// M10/M11 Q1005 RMK MON INVIS VAL INVIS VIS MIN 0000

Čas: 07:45 (06:45 UTC)


TAF: chybějící

Stav a předpovědi počasí z více než 4 000 letišť (zprávy METAR a TAF).

Červené a žluté tečky na mapě představují dostupné meteorologické stanice.

Když kurzor umístíte na tečku, zobrazí se název stanice.

Pak kliknutím zobrazíte stav a předpověď počasí.

Chcete-li změnit mapu, kliknutím na zelené tlačítko se znaménkem +mapu přiblížíte, kliknutím na zelené tlačítko se znaménkem – mapu oddálíte a kliknutím na zelené šipky přejdete na sousední mapy.


METAR-TAF: